Time;durP1;ratioP1;P1;durP2;ratioP2;P2;SDS_P1;SDS_P2;PMS_P1;PMS_P2;Temp;Humidity;BMP_temperature;BMP_pressure;BME280_temperature;BME280_humidity;BME280_pressure;Samples;Min_cycle;Max_cycle;Signal;HPM_P1;HPM_P2
2021/05/14 00:00:58;;;;;;;0.90;0.90;;;11.30;99.90;;;;;;4895649;29;20406;-73
2021/05/14 00:03:24;;;;;;;1.00;1.00;;;11.20;99.90;;;;;;4913763;29;20419;-75
2021/05/14 00:05:49;;;;;;;0.80;0.80;;;11.40;99.90;;;;;;4922040;29;20408;-75
2021/05/14 00:08:15;;;;;;;0.88;0.88;;;11.30;99.90;;;;;;4926985;29;21204;-74
2021/05/14 00:10:41;;;;;;;1.10;1.00;;;11.30;99.90;;;;;;4897253;29;20403;-76
2021/05/14 00:13:07;;;;;;;1.00;1.00;;;11.30;99.90;;;;;;4932676;29;20849;-76
2021/05/14 00:15:33;;;;;;;1.00;0.98;;;11.30;99.90;;;;;;4921881;29;20839;-75
2021/05/14 00:17:58;;;;;;;1.00;1.00;;;11.20;99.90;;;;;;4916214;29;20407;-77
2021/05/14 00:20:24;;;;;;;1.45;0.98;;;11.20;99.90;;;;;;4914733;29;20498;-75
2021/05/14 00:22:50;;;;;;;0.93;0.93;;;11.20;99.90;;;;;;4929692;29;20461;-75
2021/05/14 00:25:16;;;;;;;1.40;1.00;;;11.20;99.90;;;;;;4876910;28;20411;-76
2021/05/14 00:27:41;;;;;;;0.80;0.80;;;11.20;99.90;;;;;;4928098;29;20924;-75
2021/05/14 00:30:08;;;;;;;0.82;0.82;;;11.30;99.90;;;;;;4910463;29;21007;-77
2021/05/14 00:32:35;;;;;;;0.90;0.90;;;11.20;99.90;;;;;;4926999;29;20931;-75
2021/05/14 00:35:00;;;;;;;0.93;0.93;;;11.20;99.90;;;;;;4919548;29;20449;-77
2021/05/14 00:37:26;;;;;;;0.90;0.90;;;11.20;99.90;;;;;;4914054;29;20431;-76
2021/05/14 00:39:52;;;;;;;1.00;1.00;;;11.20;99.90;;;;;;4894361;29;20439;-75
2021/05/14 00:42:17;;;;;;;0.90;0.82;;;11.10;99.90;;;;;;4916930;29;20412;-75
2021/05/14 00:44:46;;;;;;;1.03;1.03;;;11.20;99.90;;;;;;4914291;29;20826;-75
2021/05/14 00:47:16;;;;;;;0.98;0.98;;;11.20;99.90;;;;;;4920372;28;20440;-76
2021/05/14 00:49:44;;;;;;;0.80;0.80;;;11.30;99.90;;;;;;4928915;29;20512;-74
2021/05/14 00:52:10;;;;;;;0.80;0.80;;;11.20;99.90;;;;;;4896951;29;20406;-74
2021/05/14 00:54:35;;;;;;;0.95;0.95;;;11.30;99.90;;;;;;4915732;28;20914;-79
2021/05/14 00:57:01;;;;;;;0.93;0.93;;;11.20;99.90;;;;;;4907820;29;20404;-75
2021/05/14 00:59:27;;;;;;;1.00;1.00;;;11.30;99.90;;;;;;4922444;29;20402;-74
2021/05/14 01:01:53;;;;;;;0.80;0.80;;;11.20;99.90;;;;;;4925380;29;20406;-74
2021/05/14 01:04:18;;;;;;;0.70;0.70;;;11.30;99.90;;;;;;4907902;29;20418;-75
2021/05/14 01:06:44;;;;;;;0.90;0.90;;;11.20;99.90;;;;;;4933689;29;20407;-75
2021/05/14 01:09:10;;;;;;;1.00;0.90;;;11.20;99.90;;;;;;4895880;29;20422;-77
2021/05/14 01:11:36;;;;;;;0.88;0.88;;;11.20;99.90;;;;;;4913911;29;20399;-76
2021/05/14 01:14:02;;;;;;;0.85;0.85;;;11.20;99.90;;;;;;4897326;29;20428;-74
2021/05/14 01:16:27;;;;;;;0.90;0.90;;;11.20;99.90;;;;;;4917713;28;20430;-75
2021/05/14 01:18:53;;;;;;;0.90;0.90;;;11.20;99.90;;;;;;4916203;29;20404;-76
2021/05/14 01:21:19;;;;;;;0.90;0.90;;;11.20;99.90;;;;;;4887462;28;20954;-75
2021/05/14 01:23:45;;;;;;;0.90;0.90;;;11.20;99.90;;;;;;4923367;29;20933;-75
2021/05/14 01:26:12;;;;;;;0.82;0.82;;;11.20;99.90;;;;;;4908015;29;20809;-74
2021/05/14 01:28:37;;;;;;;0.80;0.80;;;11.30;99.90;;;;;;4917482;29;20908;-80
2021/05/14 01:31:03;;;;;;;0.80;0.80;;;11.20;99.90;;;;;;4895061;29;20423;-77
2021/05/14 01:33:29;;;;;;;0.70;0.70;;;11.10;99.90;;;;;;4944942;28;20430;-75
2021/05/14 01:35:54;;;;;;;0.90;0.90;;;11.20;99.90;;;;;;4909123;29;20955;-74
2021/05/14 01:38:20;;;;;;;0.98;0.98;;;11.20;99.90;;;;;;4912294;29;20797;-74
2021/05/14 01:40:46;;;;;;;0.80;0.80;;;11.30;99.90;;;;;;4906813;28;20482;-75
2021/05/14 01:43:11;;;;;;;1.08;0.95;;;11.20;99.90;;;;;;4876207;29;20415;-78
2021/05/14 01:45:37;;;;;;;1.00;1.00;;;11.10;99.90;;;;;;4928127;29;20405;-74
2021/05/14 01:48:03;;;;;;;0.85;0.85;;;11.10;99.90;;;;;;4911944;29;21217;-75
2021/05/14 01:50:28;;;;;;;1.10;1.00;;;11.10;99.90;;;;;;4931818;29;21003;-77
2021/05/14 01:52:54;;;;;;;0.93;0.93;;;11.10;99.90;;;;;;4873810;29;20406;-75
2021/05/14 01:55:20;;;;;;;0.90;0.90;;;11.10;99.90;;;;;;4926973;29;20406;-75
2021/05/14 01:57:45;;;;;;;0.90;0.90;;;11.30;99.90;;;;;;4919679;29;20402;-76
2021/05/14 02:00:12;;;;;;;1.00;1.00;;;11.10;99.90;;;;;;4920640;29;20385;-76
2021/05/14 02:02:38;;;;;;;0.90;0.90;;;11.10;99.90;;;;;;4929574;29;20497;-77
2021/05/14 02:05:04;;;;;;;0.90;0.90;;;11.20;99.90;;;;;;4921597;29;20495;-76
2021/05/14 02:07:29;;;;;;;0.98;0.98;;;11.20;99.90;;;;;;4916065;29;20418;-76
2021/05/14 02:09:55;;;;;;;0.90;0.90;;;11.20;99.90;;;;;;4916759;29;20418;-77
2021/05/14 02:12:21;;;;;;;1.20;1.20;;;11.20;99.90;;;;;;4934491;28;20404;-77
2021/05/14 02:14:47;;;;;;;1.00;1.00;;;11.20;99.90;;;;;;4906602;29;20404;-75
2021/05/14 02:17:12;;;;;;;1.20;1.10;;;11.10;99.90;;;;;;4930199;29;20403;-76
2021/05/14 02:19:38;;;;;;;1.00;1.00;;;11.10;99.90;;;;;;4899972;29;20411;-76
2021/05/14 02:22:04;;;;;;;0.90;0.90;;;11.10;99.90;;;;;;4914119;29;20438;-77
2021/05/14 02:24:30;;;;;;;0.90;0.90;;;11.00;99.90;;;;;;4911387;29;20400;-77
2021/05/14 02:26:56;;;;;;;0.95;0.95;;;11.10;99.90;;;;;;4906614;29;21098;-79
2021/05/14 02:29:21;;;;;;;0.90;0.90;;;11.10;99.90;;;;;;4904644;29;20473;-77
2021/05/14 02:31:47;;;;;;;2.30;1.10;;;11.10;99.90;;;;;;4952729;29;20907;-79
2021/05/14 02:34:13;;;;;;;1.00;1.00;;;11.20;99.90;;;;;;4872143;29;20860;-76
2021/05/14 02:36:38;;;;;;;1.00;1.00;;;11.10;99.90;;;;;;4885891;29;20410;-82
2021/05/14 02:39:06;;;;;;;0.90;0.90;;;11.10;99.90;;;;;;4884872;29;20391;-76
2021/05/14 02:41:31;;;;;;;0.90;0.90;;;11.10;99.90;;;;;;4916589;29;20471;-78
2021/05/14 02:43:57;;;;;;;1.20;1.20;;;11.10;99.90;;;;;;4885646;29;20384;-78
2021/05/14 02:46:23;;;;;;;1.05;1.05;;;11.10;99.90;;;;;;4917691;29;20394;-79
2021/05/14 02:48:48;;;;;;;1.10;1.10;;;11.00;99.90;;;;;;4903685;29;20460;-76
2021/05/14 02:51:14;;;;;;;0.90;0.90;;;11.00;99.90;;;;;;4888281;29;20441;-76
2021/05/14 02:53:40;;;;;;;1.10;1.10;;;11.00;99.90;;;;;;4902782;29;20398;-76
2021/05/14 02:56:05;;;;;;;0.93;0.93;;;11.00;99.90;;;;;;4901063;29;20402;-77
2021/05/14 02:58:31;;;;;;;1.42;1.13;;;11.00;99.90;;;;;;4937648;29;20812;-76
2021/05/14 03:00:56;;;;;;;1.20;1.10;;;11.00;99.90;;;;;;4933854;29;20402;-75
2021/05/14 03:03:22;;;;;;;0.95;0.95;;;11.10;99.90;;;;;;4934944;29;20412;-76
2021/05/14 03:05:48;;;;;;;1.33;1.23;;;11.10;99.90;;;;;;4934715;29;20402;-76
2021/05/14 03:08:13;;;;;;;1.27;1.20;;;10.90;99.90;;;;;;4934288;29;20448;-77
2021/05/14 03:10:39;;;;;;;1.23;1.20;;;11.00;99.90;;;;;;4927887;29;20413;-76
2021/05/14 03:13:05;;;;;;;1.10;1.10;;;11.10;99.90;;;;;;4912623;29;20414;-83
2021/05/14 03:15:30;;;;;;;1.60;1.50;;;10.90;99.90;;;;;;4929576;29;20430;-78
2021/05/14 03:17:56;;;;;;;1.25;1.20;;;10.90;99.90;;;;;;4914244;29;21078;-80
2021/05/14 03:20:22;;;;;;;1.10;1.10;;;10.90;99.90;;;;;;4918121;29;20420;-79
2021/05/14 03:22:47;;;;;;;1.50;1.40;;;11.00;99.90;;;;;;4919107;29;20434;-75
2021/05/14 03:25:13;;;;;;;1.52;1.42;;;11.00;99.90;;;;;;4899444;29;20403;-76
2021/05/14 03:27:39;;;;;;;1.17;1.17;;;11.00;99.90;;;;;;4908042;28;20420;-80
2021/05/14 03:30:06;;;;;;;1.33;1.30;;;11.00;99.90;;;;;;4899090;29;20434;-78
2021/05/14 03:32:31;;;;;;;1.25;1.25;;;11.00;99.90;;;;;;4924764;29;20902;-75
2021/05/14 03:34:57;;;;;;;1.23;1.23;;;11.00;99.90;;;;;;4883617;29;20410;-76
2021/05/14 03:37:22;;;;;;;1.30;1.20;;;10.90;99.90;;;;;;4917433;29;22054;-76
2021/05/14 03:39:52;;;;;;;1.58;1.48;;;11.00;99.90;;;;;;4917597;29;20948;-78
2021/05/14 03:42:23;;;;;;;1.50;1.40;;;11.00;99.90;;;;;;4929024;29;20413;-77
2021/05/14 03:44:49;;;;;;;1.30;1.27;;;11.00;99.90;;;;;;4899669;29;20400;-80
2021/05/14 03:47:15;;;;;;;1.40;1.30;;;11.00;99.90;;;;;;4903959;28;20412;-79
2021/05/14 03:49:40;;;;;;;1.67;1.57;;;11.00;99.90;;;;;;4925577;29;20913;-76
2021/05/14 03:52:07;;;;;;;1.33;1.25;;;11.00;99.90;;;;;;4918481;29;20418;-77
2021/05/14 03:54:33;;;;;;;1.20;1.20;;;11.10;99.90;;;;;;4930409;29;20471;-77
2021/05/14 03:56:59;;;;;;;2.88;1.52;;;11.10;99.90;;;;;;4922223;29;20420;-80
2021/05/14 03:59:25;;;;;;;1.75;1.50;;;11.10;99.90;;;;;;4920450;29;20390;-78
2021/05/14 04:01:50;;;;;;;1.60;1.30;;;11.10;99.90;;;;;;4915537;29;20400;-72
2021/05/14 04:04:17;;;;;;;1.50;1.40;;;11.10;99.90;;;;;;4914252;29;20415;-76
2021/05/14 04:06:42;;;;;;;1.60;1.50;;;11.10;99.90;;;;;;4922532;29;20455;-78
2021/05/14 04:09:08;;;;;;;1.42;1.33;;;11.10;99.90;;;;;;4918058;29;20450;-75
2021/05/14 04:16:44;;;;;;;2.28;2.08;;;11.10;99.90;;;;;;4925100;29;20437;-73
2021/05/14 04:19:10;;;;;;;1.70;1.60;;;11.10;99.90;;;;;;4900567;28;20425;-76
2021/05/14 04:21:36;;;;;;;1.77;1.67;;;11.10;99.90;;;;;;4925084;29;20453;-78
2021/05/14 04:24:03;;;;;;;1.70;1.60;;;11.10;99.90;;;;;;4916207;29;20784;-76
2021/05/14 04:26:28;;;;;;;1.20;1.20;;;11.00;99.90;;;;;;4910818;29;20510;-76
2021/05/14 04:28:54;;;;;;;1.80;1.70;;;11.10;99.90;;;;;;4897265;29;20479;-77
2021/05/14 04:31:19;;;;;;;1.77;1.67;;;11.10;99.90;;;;;;4905654;29;20396;-75
2021/05/14 04:33:45;;;;;;;1.50;1.40;;;11.10;99.90;;;;;;4916736;29;20398;-72
2021/05/14 04:36:11;;;;;;;1.60;1.50;;;11.00;99.90;;;;;;4925799;29;20408;-77
2021/05/14 04:38:37;;;;;;;1.48;1.38;;;11.10;99.90;;;;;;4930361;29;20416;-79
2021/05/14 04:41:02;;;;;;;1.50;1.40;;;11.10;99.90;;;;;;4931636;29;20464;-80
2021/05/14 04:43:28;;;;;;;1.70;1.60;;;11.20;99.90;;;;;;4907272;29;20404;-78
2021/05/14 04:45:54;;;;;;;1.70;1.37;;;11.20;99.90;;;;;;4918641;29;20414;-78
2021/05/14 04:48:19;;;;;;;1.15;1.10;;;11.20;99.90;;;;;;4897116;29;20415;-76
2021/05/14 04:50:45;;;;;;;1.83;1.73;;;11.20;99.90;;;;;;4931267;29;20451;-75
2021/05/14 04:53:12;;;;;;;1.40;1.30;;;11.20;99.90;;;;;;4931647;29;20394;-78
2021/05/14 04:55:38;;;;;;;1.40;1.30;;;11.30;99.90;;;;;;4913540;29;20476;-74
2021/05/14 04:58:04;;;;;;;1.15;1.15;;;11.20;99.90;;;;;;4902309;29;20482;-78
2021/05/14 05:00:30;;;;;;;1.27;1.23;;;11.20;99.90;;;;;;4926921;29;20477;-74
2021/05/14 05:02:55;;;;;;;1.40;1.30;;;11.20;99.90;;;;;;4930270;28;20465;-76
2021/05/14 05:05:21;;;;;;;1.10;1.10;;;11.20;99.90;;;;;;4908242;29;20405;-78
2021/05/14 05:07:47;;;;;;;1.20;1.20;;;11.20;99.90;;;;;;4930527;29;20400;-81
2021/05/14 05:10:13;;;;;;;1.23;1.23;;;11.20;99.90;;;;;;4921650;29;20943;-75
2021/05/14 05:12:39;;;;;;;1.35;1.35;;;11.10;99.90;;;;;;4931217;29;20469;-75
2021/05/14 05:15:05;;;;;;;1.40;1.40;;;11.10;99.90;;;;;;4931175;29;20901;-78
2021/05/14 05:17:30;;;;;;;1.70;1.60;;;11.10;99.90;;;;;;4930426;28;20939;-76
2021/05/14 05:19:56;;;;;;;1.55;1.45;;;11.20;99.90;;;;;;4916523;29;20484;-80
2021/05/14 05:22:22;;;;;;;1.50;1.40;;;11.20;99.90;;;;;;4926170;29;20456;-74
2021/05/14 05:24:48;;;;;;;1.48;1.40;;;11.30;99.90;;;;;;4899057;29;20412;-77
2021/05/14 05:27:19;;;;;;;1.23;1.23;;;11.20;99.90;;;;;;4918254;29;20416;-80
2021/05/14 05:29:48;;;;;;;1.50;1.40;;;11.20;99.90;;;;;;4903591;29;20410;-74
2021/05/14 05:32:14;;;;;;;1.60;1.50;;;11.30;99.90;;;;;;4908765;29;20403;-73
2021/05/14 05:34:40;;;;;;;1.60;1.50;;;11.20;99.90;;;;;;4897510;29;20393;-77
2021/05/14 05:37:06;;;;;;;1.58;1.48;;;11.20;99.90;;;;;;4926149;29;20886;-73
2021/05/14 05:39:31;;;;;;;2.85;1.42;;;11.20;99.90;;;;;;4915521;29;20822;-72
2021/05/14 05:41:57;;;;;;;1.57;1.47;;;11.20;99.90;;;;;;4899309;29;20409;-74
2021/05/14 05:44:23;;;;;;;1.65;1.55;;;11.10;99.90;;;;;;4896994;29;20413;-75
2021/05/14 05:46:48;;;;;;;1.50;1.40;;;11.10;99.90;;;;;;4893390;29;20777;-75
2021/05/14 05:49:14;;;;;;;1.60;1.50;;;11.10;99.90;;;;;;4910136;29;20913;-72
2021/05/14 05:51:39;;;;;;;1.50;1.40;;;11.20;99.90;;;;;;4932332;29;20400;-75
2021/05/14 05:54:06;;;;;;;1.60;1.50;;;11.20;99.90;;;;;;4905678;29;20411;-73
2021/05/14 05:56:31;;;;;;;5.78;5.00;;;11.20;99.90;;;;;;4908018;29;20406;-72
2021/05/14 05:58:57;;;;;;;2.07;1.90;;;11.20;99.90;;;;;;4896308;29;20962;-75
2021/05/14 06:01:22;;;;;;;1.60;1.50;;;11.20;99.90;;;;;;4928851;29;21145;-74
2021/05/14 06:03:48;;;;;;;1.63;1.53;;;11.10;99.90;;;;;;4894906;29;20822;-75
2021/05/14 06:06:14;;;;;;;1.50;1.40;;;11.10;99.90;;;;;;4893436;29;20419;-74
2021/05/14 06:08:40;;;;;;;1.67;1.58;;;11.10;99.90;;;;;;4910421;29;20399;-76
2021/05/14 06:11:06;;;;;;;1.50;1.40;;;11.10;99.90;;;;;;4898125;29;20410;-73
2021/05/14 06:13:33;;;;;;;1.60;1.50;;;11.10;99.90;;;;;;4926104;29;20406;-75
2021/05/14 06:15:59;;;;;;;1.48;1.40;;;11.20;99.90;;;;;;4895592;29;20402;-75
2021/05/14 06:18:27;;;;;;;3.22;1.50;;;11.20;99.90;;;;;;4928600;29;20406;-72
2021/05/14 06:20:53;;;;;;;3.58;2.55;;;11.10;99.90;;;;;;4897655;29;20853;-74
2021/05/14 06:23:19;;;;;;;4.03;3.50;;;11.20;99.90;;;;;;4914908;29;20514;-76
2021/05/14 06:25:44;;;;;;;2.00;1.90;;;11.30;99.90;;;;;;4928660;29;20481;-73
2021/05/14 06:28:16;;;;;;;1.87;1.77;;;11.30;99.90;;;;;;4928026;29;20405;-72
2021/05/14 06:30:42;;;;;;;2.07;1.90;;;11.30;99.90;;;;;;4914683;29;20420;-72
2021/05/14 06:33:08;;;;;;;1.98;1.88;;;11.30;99.90;;;;;;4912436;29;20406;-72
2021/05/14 06:35:34;;;;;;;2.30;2.10;;;11.40;99.90;;;;;;4928061;29;20423;-78
2021/05/14 06:38:00;;;;;;;2.17;1.98;;;11.20;99.90;;;;;;4932919;29;20475;-75
2021/05/14 06:40:25;;;;;;;2.03;1.93;;;11.20;99.90;;;;;;4892712;29;20987;-74
2021/05/14 06:42:51;;;;;;;2.25;2.05;;;11.20;99.90;;;;;;4923981;29;20777;-76
2021/05/14 06:45:17;;;;;;;2.23;2.10;;;11.30;99.90;;;;;;4918412;29;20446;-74
2021/05/14 06:47:42;;;;;;;2.10;1.92;;;11.20;99.90;;;;;;4916445;29;20417;-72
2021/05/14 06:50:08;;;;;;;2.50;2.30;;;11.20;99.90;;;;;;4936768;28;20421;-78
2021/05/14 06:52:35;;;;;;;2.28;2.13;;;11.30;99.90;;;;;;4939049;28;20402;-83
2021/05/14 06:55:05;;;;;;;2.00;1.80;;;11.40;99.90;;;;;;4923887;28;20429;-77
2021/05/14 06:57:31;;;;;;;3.30;2.40;;;11.40;99.90;;;;;;4931422;29;20437;-77
2021/05/14 06:59:56;;;;;;;2.10;2.00;;;11.50;99.90;;;;;;4924195;29;20448;-78
2021/05/14 07:02:22;;;;;;;2.35;2.17;;;11.60;99.90;;;;;;4909728;29;20798;-77
2021/05/14 07:04:48;;;;;;;2.00;1.90;;;11.70;99.90;;;;;;4901673;29;21110;-78
2021/05/14 07:07:13;;;;;;;2.40;2.20;;;11.60;99.90;;;;;;4932566;29;20428;-77
2021/05/14 07:09:39;;;;;;;1.90;1.80;;;11.70;99.90;;;;;;4917016;29;20413;-78
2021/05/14 07:12:05;;;;;;;2.05;1.95;;;11.80;99.90;;;;;;4923186;29;20419;-79
2021/05/14 07:14:31;;;;;;;2.07;1.97;;;11.80;99.90;;;;;;4932753;29;20928;-73
2021/05/14 07:16:56;;;;;;;2.90;2.00;;;11.70;99.90;;;;;;4929214;29;20415;-76
2021/05/14 07:19:22;;;;;;;2.10;2.00;;;11.80;99.90;;;;;;4896535;29;20403;-73
2021/05/14 07:21:48;;;;;;;2.90;1.88;;;11.80;99.90;;;;;;4925168;29;20410;-79
2021/05/14 07:24:14;;;;;;;2.35;2.20;;;11.80;99.90;;;;;;4933310;29;20409;-75
2021/05/14 07:26:39;;;;;;;2.20;2.10;;;11.90;99.90;;;;;;4915180;28;20406;-73
2021/05/14 07:29:06;;;;;;;2.00;1.90;;;11.90;99.90;;;;;;4904341;29;20425;-75
2021/05/14 07:31:31;;;;;;;2.33;2.22;;;12.00;99.90;;;;;;4916214;29;20900;-77
2021/05/14 07:33:57;;;;;;;2.43;2.23;;;12.00;99.90;;;;;;4930184;29;20399;-74
2021/05/14 07:36:24;;;;;;;2.78;2.13;;;12.00;99.90;;;;;;4925198;29;20409;-75
2021/05/14 07:38:50;;;;;;;2.53;2.33;;;11.90;99.90;;;;;;4917992;29;20428;-72
2021/05/14 07:41:16;;;;;;;3.00;2.80;;;11.90;99.90;;;;;;4916567;29;20393;-74
2021/05/14 07:43:41;;;;;;;2.50;2.30;;;11.80;99.90;;;;;;4930693;29;20394;-78
2021/05/14 07:46:07;;;;;;;2.38;1.90;;;11.80;99.90;;;;;;4921608;29;20436;-77
2021/05/14 07:48:33;;;;;;;2.53;2.33;;;11.80;99.90;;;;;;4923780;29;20399;-75
2021/05/14 07:50:58;;;;;;;2.50;2.30;;;11.70;99.90;;;;;;4927800;29;21192;-77
2021/05/14 07:53:24;;;;;;;2.10;1.90;;;11.70;99.90;;;;;;4932722;29;20429;-78
2021/05/14 07:55:50;;;;;;;3.45;2.00;;;11.70;99.90;;;;;;4931351;29;20472;-71
2021/05/14 07:58:15;;;;;;;2.27;1.77;;;11.60;99.90;;;;;;4915792;29;20393;-76
2021/05/14 08:00:41;;;;;;;2.15;1.70;;;11.60;99.90;;;;;;4930238;29;20433;-79
2021/05/14 08:03:07;;;;;;;1.80;1.70;;;11.60;99.90;;;;;;4932487;29;20413;-73
2021/05/14 08:05:33;;;;;;;1.70;1.60;;;11.70;99.90;;;;;;4930894;29;20889;-74
2021/05/14 08:08:08;;;;;;;1.60;1.50;;;11.80;99.90;;;;;;4932000;29;20881;-77
2021/05/14 08:10:34;;;;;;;1.70;1.60;;;11.90;99.90;;;;;;4931747;29;20406;-76
2021/05/14 08:12:59;;;;;;;1.60;1.50;;;12.10;99.90;;;;;;4914897;29;20405;-75
2021/05/14 08:15:25;;;;;;;1.58;1.48;;;12.10;99.90;;;;;;4927776;29;21131;-76
2021/05/14 08:17:51;;;;;;;1.50;1.40;;;12.20;99.90;;;;;;4923470;29;20394;-77
2021/05/14 08:20:17;;;;;;;1.70;1.60;;;12.20;99.90;;;;;;4900171;29;20417;-75
2021/05/14 08:22:43;;;;;;;1.50;1.40;;;12.30;99.90;;;;;;4931685;29;20410;-76
2021/05/14 08:25:10;;;;;;;1.40;1.30;;;12.10;99.90;;;;;;4930415;28;20410;-78
2021/05/14 08:27:36;;;;;;;2.20;1.50;;;12.20;99.90;;;;;;4926531;29;20966;-77
2021/05/14 08:30:02;;;;;;;1.60;1.50;;;12.20;99.90;;;;;;4941532;28;20418;-79
2021/05/14 08:32:28;;;;;;;1.80;1.70;;;12.30;99.90;;;;;;4915469;29;20492;-78
2021/05/14 08:34:53;;;;;;;1.25;1.20;;;12.30;99.90;;;;;;4929691;29;20430;-76
2021/05/14 08:37:19;;;;;;;1.47;1.37;;;12.30;99.90;;;;;;4931677;29;20397;-79
2021/05/14 08:39:45;;;;;;;1.50;1.40;;;12.30;99.90;;;;;;4931372;29;20414;-77
2021/05/14 08:42:12;;;;;;;1.43;1.33;;;12.20;99.90;;;;;;4930599;29;20866;-74
2021/05/14 08:44:37;;;;;;;1.50;1.40;;;12.30;99.90;;;;;;4917631;29;20407;-81
2021/05/14 08:47:03;;;;;;;1.10;1.10;;;12.10;99.90;;;;;;4888076;29;20771;-77
2021/05/14 08:49:28;;;;;;;2.58;1.17;;;12.20;99.90;;;;;;4930550;29;20417;-73
2021/05/14 08:51:54;;;;;;;1.20;1.20;;;12.20;99.90;;;;;;4917211;29;20433;-74
2021/05/14 08:54:20;;;;;;;1.27;1.17;;;12.20;99.90;;;;;;4932051;29;20398;-76
2021/05/14 08:56:45;;;;;;;1.00;1.00;;;12.20;99.90;;;;;;4925876;29;20397;-82
2021/05/14 08:59:11;;;;;;;1.30;1.20;;;12.10;99.90;;;;;;4932569;29;20452;-78
2021/05/14 09:01:39;;;;;;;1.10;1.10;;;12.10;99.90;;;;;;4899603;29;20402;-74
2021/05/14 09:04:07;;;;;;;1.40;1.30;;;12.10;99.90;;;;;;4899675;29;20409;-76
2021/05/14 09:06:37;;;;;;;1.10;1.10;;;12.30;99.90;;;;;;4898735;29;20434;-80
2021/05/14 09:09:05;;;;;;;1.70;1.60;;;12.40;99.90;;;;;;4932829;28;20436;-77
2021/05/14 09:11:49;;;;;;;1.10;1.10;;;12.70;99.90;;;;;;4934307;29;20408;-78
2021/05/14 09:14:45;;;;;;;3.60;3.03;;;12.70;99.90;;;;;;4924981;29;20409;-77
2021/05/14 09:17:18;;;;;;;0.98;0.98;;;12.90;99.90;;;;;;4931310;29;20397;-74
2021/05/14 09:19:45;;;;;;;1.00;1.00;;;12.90;99.90;;;;;;4907484;29;20421;-74
2021/05/14 09:22:11;;;;;;;1.00;1.00;;;13.00;99.90;;;;;;4896303;29;20403;-74
2021/05/14 09:24:37;;;;;;;1.45;1.20;;;13.00;99.90;;;;;;4928803;29;20396;-75
2021/05/14 09:27:27;;;;;;;1.00;1.00;;;13.10;99.90;;;;;;4930790;29;20413;-77
2021/05/14 09:29:53;;;;;;;1.27;1.20;;;13.20;99.90;;;;;;4936882;29;20414;-78
2021/05/14 09:32:23;;;;;;;3.15;1.10;;;13.30;99.90;;;;;;4914197;29;20464;-75
2021/05/14 09:34:56;;;;;;;0.90;0.90;;;13.40;99.90;;;;;;4897249;29;20498;-79
2021/05/14 09:37:25;;;;;;;0.93;0.93;;;13.40;99.90;;;;;;4895540;29;21017;-74
2021/05/14 09:40:19;;;;;;;1.83;1.05;;;13.40;99.90;;;;;;4912630;29;21014;-77
2021/05/14 09:42:46;;;;;;;0.90;0.90;;;13.40;99.90;;;;;;4901190;29;20414;-78
2021/05/14 09:45:18;;;;;;;1.20;1.00;;;13.40;99.90;;;;;;4917972;29;20903;-78
2021/05/14 09:47:44;;;;;;;1.40;1.02;;;13.20;99.90;;;;;;4911949;29;20408;-76
2021/05/14 09:50:31;;;;;;;1.00;0.90;;;13.20;99.90;;;;;;4911220;29;20551;-76
2021/05/14 09:53:16;;;;;;;1.00;0.88;;;13.20;99.90;;;;;;4928399;29;20414;-77
2021/05/14 09:55:48;;;;;;;0.90;0.90;;;13.20;99.90;;;;;;4914326;28;20927;-78
2021/05/14 09:58:37;;;;;;;0.80;0.80;;;13.20;99.90;;;;;;4920719;28;20526;-80
2021/05/14 10:01:03;;;;;;;0.80;0.80;;;13.20;99.90;;;;;;4900318;29;20400;-77
2021/05/14 10:03:31;;;;;;;0.90;0.90;;;13.30;99.90;;;;;;4928998;29;20919;-79
2021/05/14 10:05:56;;;;;;;1.38;0.90;;;13.40;99.90;;;;;;4913145;29;20765;-75
2021/05/14 10:08:24;;;;;;;1.07;1.00;;;13.40;99.90;;;;;;4914705;29;20453;-77
2021/05/14 10:10:50;;;;;;;0.90;0.90;;;13.40;99.90;;;;;;4931513;29;20449;-78
2021/05/14 10:13:16;;;;;;;1.30;1.20;;;13.40;99.90;;;;;;4931808;29;20820;-75
2021/05/14 10:15:42;;;;;;;0.90;0.90;;;13.30;99.90;;;;;;4927118;29;20395;-75
2021/05/14 10:18:16;;;;;;;0.80;0.80;;;13.20;99.90;;;;;;4931006;29;20406;-81
2021/05/14 10:20:42;;;;;;;0.98;0.98;;;13.20;99.90;;;;;;4934735;29;20772;-74
2021/05/14 10:23:08;;;;;;;0.70;0.70;;;13.20;99.90;;;;;;4919123;29;20413;-82
2021/05/14 10:25:50;;;;;;;1.55;1.05;;;13.30;99.90;;;;;;4939349;28;20408;-75
2021/05/14 10:28:19;;;;;;;1.00;1.00;;;13.30;99.90;;;;;;4938749;29;20406;-80
2021/05/14 10:31:07;;;;;;;1.00;0.98;;;13.40;99.90;;;;;;4934684;29;20501;-79
2021/05/14 10:33:41;;;;;;;0.88;0.88;;;13.40;99.90;;;;;;4918673;29;20455;-75
2021/05/14 10:36:24;;;;;;;1.45;1.00;;;13.60;99.90;;;;;;4944113;28;20402;-75
2021/05/14 10:39:05;;;;;;;1.00;0.90;;;13.60;99.90;;;;;;4917614;29;20407;-76
2021/05/14 10:41:31;;;;;;;0.93;0.93;;;13.70;99.90;;;;;;4917107;29;20405;-79
2021/05/14 10:43:58;;;;;;;0.90;0.90;;;13.90;99.90;;;;;;4918341;29;20402;-80
2021/05/14 10:46:27;;;;;;;1.00;0.98;;;14.00;99.90;;;;;;4888923;29;20400;-81
2021/05/14 10:49:03;;;;;;;1.00;1.00;;;13.90;99.90;;;;;;4919340;28;20409;-75
2021/05/14 10:51:50;;;;;;;0.70;0.70;;;13.80;99.90;;;;;;4908012;29;20957;-75
2021/05/14 10:54:40;;;;;;;1.60;1.50;;;13.80;99.90;;;;;;4925289;29;20389;-76
2021/05/14 10:57:07;;;;;;;1.70;1.40;;;13.90;99.90;;;;;;4951167;28;20406;-77
2021/05/14 10:59:35;;;;;;;0.73;0.73;;;14.10;99.90;;;;;;4906695;29;20412;-73
2021/05/14 11:02:21;;;;;;;0.80;0.80;;;14.30;99.90;;;;;;4934101;29;20397;-73
2021/05/14 11:04:47;;;;;;;0.70;0.70;;;14.40;99.90;;;;;;4932837;29;20392;-78
2021/05/14 11:07:36;;;;;;;1.50;0.90;;;14.60;99.90;;;;;;4869235;29;20419;-75
2021/05/14 11:10:14;;;;;;;0.95;0.80;;;14.70;99.90;;;;;;4900509;29;20469;-75
2021/05/14 11:12:43;;;;;;;0.80;0.80;;;14.70;99.90;;;;;;4932280;29;20978;-78
2021/05/14 11:15:21;;;;;;;0.93;0.93;;;14.60;99.90;;;;;;4900958;29;20957;-75
2021/05/14 11:18:06;;;;;;;0.80;0.80;;;14.40;99.90;;;;;;4950749;28;20397;-79
2021/05/14 11:20:45;;;;;;;0.80;0.80;;;14.30;99.90;;;;;;4952191;28;20393;-73
2021/05/14 11:23:33;;;;;;;1.00;1.00;;;14.20;99.90;;;;;;4932930;29;20430;-77
2021/05/14 11:25:59;;;;;;;0.70;0.70;;;14.20;99.90;;;;;;4915441;29;20471;-76
2021/05/14 11:28:44;;;;;;;0.80;0.80;;;14.20;99.90;;;;;;4923215;28;20839;-78
2021/05/14 11:31:20;;;;;;;1.08;0.98;;;14.20;99.90;;;;;;4934529;28;20413;-75
2021/05/14 11:33:48;;;;;;;1.13;1.13;;;14.20;99.90;;;;;;4918798;28;20394;-76
2021/05/14 11:36:13;;;;;;;1.00;1.00;;;14.20;99.90;;;;;;4918543;29;20398;-74
2021/05/14 11:38:49;;;;;;;1.00;1.00;;;14.20;99.90;;;;;;4949368;28;20413;-80
2021/05/14 11:41:16;;;;;;;1.20;1.10;;;14.20;99.90;;;;;;4907040;29;20417;-78
2021/05/14 11:43:53;;;;;;;0.55;0.55;;;14.20;99.90;;;;;;4915014;29;20404;-78
2021/05/14 11:46:19;;;;;;;1.20;0.80;;;14.20;99.90;;;;;;4899323;29;20399;-78
2021/05/14 11:48:44;;;;;;;0.65;0.65;;;14.10;99.90;;;;;;4915046;29;21032;-75
2021/05/14 11:51:10;;;;;;;0.73;0.73;;;14.10;99.90;;;;;;4915038;29;20431;-76
2021/05/14 11:53:35;;;;;;;0.60;0.60;;;14.10;99.90;;;;;;4900107;29;20395;-82
2021/05/14 11:56:03;;;;;;;0.50;0.50;;;14.20;99.90;;;;;;4901718;29;20539;-82
2021/05/14 11:58:29;;;;;;;0.85;0.85;;;14.30;99.90;;;;;;4915123;29;20404;-82
2021/05/14 12:00:57;;;;;;;0.67;0.67;;;14.50;99.90;;;;;;4915384;29;20891;-77
2021/05/14 12:03:23;;;;;;;0.90;0.90;;;14.40;99.90;;;;;;4930704;28;20473;-74
2021/05/14 12:05:49;;;;;;;0.65;0.65;;;14.30;99.90;;;;;;4924618;29;20441;-74
2021/05/14 12:08:22;;;;;;;0.73;0.73;;;14.20;99.90;;;;;;4944702;28;20788;-76
2021/05/14 12:10:57;;;;;;;0.70;0.70;;;14.20;99.90;;;;;;4915573;29;20440;-77
2021/05/14 12:13:28;;;;;;;0.70;0.70;;;14.20;99.90;;;;;;4915089;29;20434;-76
2021/05/14 12:16:00;;;;;;;0.80;0.80;;;14.20;99.90;;;;;;4913794;29;20922;-76
2021/05/14 12:18:30;;;;;;;0.60;0.60;;;14.20;99.90;;;;;;4914423;29;20944;-78
2021/05/14 12:20:56;;;;;;;0.70;0.70;;;14.30;99.90;;;;;;4915584;29;20406;-75
2021/05/14 12:23:23;;;;;;;0.63;0.63;;;14.30;99.90;;;;;;4914923;29;20399;-79
2021/05/14 12:25:53;;;;;;;0.73;0.73;;;14.30;99.90;;;;;;4914610;29;20467;-75
2021/05/14 12:28:43;;;;;;;0.65;0.65;;;14.30;99.90;;;;;;4915729;29;20415;-75
2021/05/14 12:31:10;;;;;;;0.70;0.70;;;14.30;99.90;;;;;;4905483;29;20422;-83
2021/05/14 12:33:52;;;;;;;0.67;0.67;;;14.30;99.90;;;;;;4902290;29;20421;-75
2021/05/14 12:36:28;;;;;;;0.70;0.70;;;14.40;99.90;;;;;;4901975;29;20414;-79
2021/05/14 12:39:12;;;;;;;1.20;0.70;;;14.60;99.90;;;;;;4918029;29;20967;-73
2021/05/14 12:41:44;;;;;;;0.70;0.70;;;14.70;99.90;;;;;;4936843;29;20412;-75
2021/05/14 12:44:12;;;;;;;2.00;1.30;;;14.80;99.90;;;;;;4917550;29;20417;-76
2021/05/14 12:46:56;;;;;;;1.13;0.80;;;14.80;99.90;;;;;;4950042;29;20394;-79
2021/05/14 12:49:22;;;;;;;2.50;0.70;;;14.70;99.90;;;;;;4917580;29;20993;-76
2021/05/14 12:52:08;;;;;;;0.60;0.60;;;14.70;99.90;;;;;;4903804;29;20406;-79
2021/05/14 12:54:35;;;;;;;0.68;0.68;;;14.70;99.90;;;;;;4920007;29;20405;-75
2021/05/14 12:57:00;;;;;;;0.90;0.90;;;14.80;99.90;;;;;;4916378;29;20406;-75